Time;durP1;ratioP1;P1;durP2;ratioP2;P2;SDS_P1;SDS_P2;PMS_P1;PMS_P2;Temp;Humidity;BMP_temperature;BMP_pressure;BME280_temperature;BME280_humidity;BME280_pressure;Samples;Min_cycle;Max_cycle;Signal;HPM_P1;HPM_P2
2022/08/24 00:00:11;;;;;;;;;;;18.80;99.90;;;;;;5086033;28;19928;-58
2022/08/24 00:02:39;;;;;;;;;;;18.80;99.90;;;;;;5075489;28;19928;-57
2022/08/24 00:05:07;;;;;;;;;;;18.80;99.90;;;;;;5087843;28;19931;-57
2022/08/24 00:07:41;;;;;;;;;;;18.80;99.90;;;;;;5089082;28;20295;-57
2022/08/24 00:10:09;;;;;;;;;;;18.80;99.90;;;;;;5079063;28;19931;-57
2022/08/24 00:12:36;;;;;;;;;;;18.80;99.90;;;;;;5069129;28;19925;-58
2022/08/24 00:15:05;;;;;;;;;;;18.80;99.90;;;;;;5080859;28;19970;-58
2022/08/24 00:17:33;;;;;;;;;;;18.80;99.90;;;;;;5073068;28;20290;-58
2022/08/24 00:20:01;;;;;;;;;;;18.80;99.90;;;;;;5089431;28;20115;-58
2022/08/24 00:22:28;;;;;;;;;;;18.80;99.90;;;;;;5084457;28;19932;-58
2022/08/24 00:24:56;;;;;;;;;;;18.80;99.90;;;;;;5079872;28;19925;-58
2022/08/24 00:27:23;;;;;;;;;;;18.70;99.90;;;;;;5072464;28;20176;-58
2022/08/24 00:29:51;;;;;;;;;;;18.70;99.90;;;;;;5079188;28;19928;-58
2022/08/24 00:32:18;;;;;;;;;;;18.70;99.90;;;;;;5085788;28;19931;-57
2022/08/24 00:34:47;;;;;;;;;;;18.70;99.90;;;;;;5074792;28;19928;-57
2022/08/24 00:37:25;;;;;;;;;;;18.60;99.90;;;;;;5084203;28;19924;-57
2022/08/24 00:39:53;;;;;;;;;;;18.60;99.90;;;;;;5086262;28;19924;-57
2022/08/24 00:42:20;;;;;;;;;;;18.60;99.90;;;;;;5068752;28;19931;-57
2022/08/24 00:44:48;;;;;;;;;;;18.60;99.90;;;;;;5081735;28;19924;-57
2022/08/24 00:47:27;;;;;;;;;;;18.70;99.90;;;;;;5094154;28;19932;-57
2022/08/24 00:49:59;;;;;;;;;;;18.60;99.90;;;;;;5083449;28;19924;-58
2022/08/24 00:52:33;;;;;;;;;;;18.70;99.90;;;;;;5082337;28;19931;-57
2022/08/24 00:55:06;;;;;;;;;;;18.60;99.90;;;;;;5083096;28;19928;-57
2022/08/24 00:57:37;;;;;;;;;;;18.60;99.90;;;;;;5071690;28;19931;-57
2022/08/24 01:00:09;;;;;;;;;;;18.60;99.90;;;;;;5086475;28;19924;-57
2022/08/24 01:02:40;;;;;;;;;;;18.60;99.90;;;;;;5076339;28;19924;-58
2022/08/24 01:05:10;;;;;;;;;;;18.60;99.90;;;;;;5068161;28;19924;-58
2022/08/24 01:07:38;;;;;;;;;;;18.60;99.90;;;;;;5066940;28;19925;-57
2022/08/24 01:10:08;;;;;;;;;;;18.60;99.90;;;;;;5075257;28;19924;-58
2022/08/24 01:12:37;;;;;;;;;;;18.60;99.90;;;;;;5080771;28;19931;-58
2022/08/24 01:15:06;;;;;;;;;;;18.60;99.90;;;;;;5082086;28;19924;-57
2022/08/24 01:20:22;;;;;;;;;;;18.60;99.90;;;;;;5094904;28;19955;-57
2022/08/24 01:22:49;;;;;;;;;;;18.60;99.90;;;;;;5066831;28;19944;-57
2022/08/24 01:25:17;;;;;;;;;;;18.60;99.90;;;;;;5065145;28;19928;-57
2022/08/24 01:27:46;;;;;;;;;;;18.60;99.90;;;;;;5079193;28;19924;-56
2022/08/24 01:30:15;;;;;;;;;;;18.60;99.90;;;;;;5064766;28;19932;-56
2022/08/24 01:32:56;;;;;;;;;;;18.60;99.90;;;;;;5075246;28;19951;-56
2022/08/24 01:35:24;;;;;;;;;;;18.50;99.90;;;;;;5068636;28;20372;-56
2022/08/24 01:37:53;;;;;;;;;;;18.60;99.90;;;;;;5077374;28;19925;-57
2022/08/24 01:40:24;;;;;;;;;;;18.60;99.90;;;;;;5066209;28;19924;-56
2022/08/24 01:42:52;;;;;;;;;;;18.60;99.90;;;;;;5098280;28;20334;-57
2022/08/24 01:45:21;;;;;;;;;;;18.50;99.90;;;;;;5065883;28;20288;-57
2022/08/24 01:47:48;;;;;;;;;;;18.50;99.90;;;;;;5075743;28;19925;-57
2022/08/24 01:50:16;;;;;;;;;;;18.50;99.90;;;;;;5075982;28;20388;-57
2022/08/24 01:52:43;;;;;;;;;;;18.50;99.90;;;;;;5074695;28;19928;-57
2022/08/24 01:55:31;;;;;;;;;;;18.50;99.90;;;;;;5051174;28;19924;-57
2022/08/24 01:57:59;;;;;;;;;;;18.50;99.90;;;;;;5078173;28;19935;-57
2022/08/24 02:00:29;;;;;;;;;;;18.50;99.90;;;;;;5079702;28;19928;-57
2022/08/24 02:02:56;;;;;;;;;;;18.50;99.90;;;;;;5077280;28;19924;-57
2022/08/24 02:05:24;;;;;;;;;;;18.60;99.90;;;;;;5072814;28;19925;-56
2022/08/24 02:07:51;;;;;;;;;;;18.50;99.90;;;;;;5073043;28;19924;-57
2022/08/24 02:10:20;;;;;;;;;;;18.50;99.90;;;;;;5064630;28;20087;-57
2022/08/24 02:12:56;;;;;;;;;;;18.50;99.90;;;;;;5088075;28;19924;-57
2022/08/24 02:15:26;;;;;;;;;;;18.50;99.90;;;;;;5083353;28;19924;-57
2022/08/24 02:17:54;;;;;;;;;;;18.50;99.90;;;;;;5073808;28;19924;-57
2022/08/24 02:20:22;;;;;;;;;;;18.50;99.90;;;;;;5077960;28;19924;-57
2022/08/24 02:22:49;;;;;;;;;;;18.40;99.90;;;;;;5092371;28;19924;-56
2022/08/24 02:25:19;;;;;;;;;;;18.40;99.90;;;;;;5092835;28;19924;-57
2022/08/24 02:27:46;;;;;;;;;;;18.40;99.90;;;;;;5091738;28;20287;-56
2022/08/24 02:30:14;;;;;;;;;;;18.40;99.90;;;;;;5092782;28;20448;-56
2022/08/24 02:32:42;;;;;;;;;;;18.40;99.90;;;;;;5088561;28;19924;-57
2022/08/24 02:35:09;;;;;;;;;;;18.40;99.90;;;;;;5082246;28;19944;-58
2022/08/24 02:37:37;;;;;;;;;;;18.30;99.90;;;;;;5076265;28;19924;-57
2022/08/24 02:40:12;;;;;;;;;;;18.40;99.90;;;;;;5076959;28;19932;-56
2022/08/24 02:42:40;;;;;;;;;;;18.30;99.90;;;;;;5090633;28;19931;-56
2022/08/24 02:45:08;;;;;;;;;;;18.30;99.90;;;;;;5092148;28;19931;-57
2022/08/24 02:47:37;;;;;;;;;;;18.30;99.90;;;;;;5072243;28;19932;-56
2022/08/24 02:50:09;;;;;;;;;;;18.30;99.90;;;;;;5075675;28;19939;-56
2022/08/24 02:52:38;;;;;;;;;;;18.20;99.90;;;;;;5076720;28;19936;-56
2022/08/24 02:55:07;;;;;;;;;;;18.30;99.90;;;;;;5077193;28;19928;-56
2022/08/24 02:57:36;;;;;;;;;;;18.20;99.90;;;;;;5078839;28;20287;-56
2022/08/24 03:00:08;;;;;;;;;;;18.20;99.90;;;;;;5073954;28;19931;-56
2022/08/24 03:02:42;;;;;;;;;;;18.20;99.90;;;;;;5080713;28;19932;-56
2022/08/24 03:05:09;;;;;;;;;;;18.30;99.90;;;;;;5080177;28;19928;-56
2022/08/24 03:07:37;;;;;;;;;;;18.30;99.90;;;;;;5086528;28;20387;-56
2022/08/24 03:10:05;;;;;;;;;;;18.30;99.90;;;;;;5092389;28;19924;-56
2022/08/24 03:12:33;;;;;;;;;;;18.30;99.90;;;;;;5093419;28;20290;-56
2022/08/24 03:15:02;;;;;;;;;;;18.30;99.90;;;;;;5090768;28;19951;-55
2022/08/24 03:17:30;;;;;;;;;;;18.30;99.90;;;;;;5093689;28;20444;-56
2022/08/24 03:20:04;;;;;;;;;;;18.30;99.90;;;;;;5087851;28;20468;-55
2022/08/24 03:22:31;;;;;;;;;;;18.30;99.90;;;;;;5092657;28;19931;-55
2022/08/24 03:24:58;;;;;;;;;;;18.40;99.90;;;;;;5071410;28;19924;-56
2022/08/24 03:27:26;;;;;;;;;;;18.40;99.90;;;;;;5074125;28;19931;-56
2022/08/24 03:29:54;;;;;;;;;;;18.40;99.90;;;;;;5072938;28;20268;-56
2022/08/24 03:32:21;;;;;;;;;;;18.40;99.90;;;;;;5073034;28;19925;-56
2022/08/24 03:34:49;;;;;;;;;;;18.40;99.90;;;;;;5072913;28;20292;-56
2022/08/24 03:37:17;;;;;;;;;;;18.50;99.90;;;;;;5073072;28;19924;-56
2022/08/24 03:39:46;;;;;;;;;;;18.40;99.90;;;;;;5058321;28;19932;-56
2022/08/24 03:42:14;;;;;;;;;;;18.50;99.90;;;;;;5073978;28;19932;-56
2022/08/24 03:44:42;;;;;;;;;;;18.40;99.90;;;;;;5089353;28;19924;-56
2022/08/24 03:47:10;;;;;;;;;;;18.50;99.90;;;;;;5088461;28;19932;-56
2022/08/24 03:49:38;;;;;;;;;;;18.50;99.90;;;;;;5089325;28;19932;-56
2022/08/24 03:52:06;;;;;;;;;;;18.50;99.90;;;;;;5072855;28;19925;-56
2022/08/24 03:54:33;;;;;;;;;;;18.50;99.90;;;;;;5073004;28;19933;-56
2022/08/24 03:57:01;;;;;;;;;;;18.60;99.90;;;;;;5072264;28;20025;-55
2022/08/24 03:59:30;;;;;;;;;;;18.50;99.90;;;;;;5072330;28;19931;-56
2022/08/24 04:01:58;;;;;;;;;;;18.60;99.90;;;;;;5072730;28;19924;-55
2022/08/24 04:04:28;;;;;;;;;;;18.50;99.90;;;;;;5071518;28;19947;-56
2022/08/24 04:06:56;;;;;;;;;;;18.60;99.90;;;;;;5072708;28;19924;-56
2022/08/24 04:09:25;;;;;;;;;;;18.60;99.90;;;;;;5072284;28;19924;-57
2022/08/24 04:11:55;;;;;;;;;;;18.60;99.90;;;;;;5071970;28;19931;-57
2022/08/24 04:14:25;;;;;;;;;;;18.60;99.90;;;;;;5071407;28;19925;-57
2022/08/24 04:17:13;;;;;;;;;;;18.60;99.90;;;;;;5092389;28;20299;-57
2022/08/24 04:19:56;;;;;;;;;;;18.60;99.90;;;;;;5092608;28;19931;-57
2022/08/24 04:22:36;;;;;;;;;;;18.60;99.90;;;;;;5083842;28;19931;-57
2022/08/24 04:25:04;;;;;;;;;;;18.60;99.90;;;;;;5072112;28;19924;-58
2022/08/24 04:27:38;;;;;;;;;;;18.60;99.90;;;;;;5071922;28;19932;-57
2022/08/24 04:30:06;;;;;;;;;;;18.70;99.90;;;;;;5080183;28;19924;-57
2022/08/24 04:32:49;;;;;;;;;;;18.70;99.90;;;;;;5090265;28;19947;-56
2022/08/24 04:35:16;;;;;;;;;;;18.70;99.90;;;;;;5086599;28;19931;-56
2022/08/24 04:37:44;;;;;;;;;;;18.70;99.90;;;;;;5090644;28;20406;-56
2022/08/24 04:40:11;;;;;;;;;;;18.70;99.90;;;;;;5093219;28;19928;-57
2022/08/24 04:42:45;;;;;;;;;;;18.70;99.90;;;;;;5091830;28;19924;-56
2022/08/24 04:45:15;;;;;;;;;;;18.70;99.90;;;;;;5089854;28;20400;-56
2022/08/24 04:47:43;;;;;;;;;;;18.70;99.90;;;;;;5085245;28;20358;-56
2022/08/24 04:50:11;;;;;;;;;;;18.80;99.90;;;;;;5067980;28;19929;-56
2022/08/24 04:52:39;;;;;;;;;;;18.80;99.90;;;;;;5069067;28;19924;-56
2022/08/24 04:55:06;;;;;;;;;;;18.80;99.90;;;;;;5085261;28;19924;-57
2022/08/24 04:57:35;;;;;;;;;;;18.70;99.90;;;;;;5088256;28;20280;-56
2022/08/24 05:00:05;;;;;;;;;;;18.70;99.90;;;;;;5070950;28;20367;-57
2022/08/24 05:02:32;;;;;;;;;;;18.70;99.90;;;;;;5078960;28;19924;-58
2022/08/24 05:05:08;;;;;;;;;;;18.70;99.90;;;;;;5082579;28;19936;-58
2022/08/24 05:07:35;;;;;;;;;;;18.70;99.90;;;;;;5084495;28;19931;-57
2022/08/24 05:10:04;;;;;;;;;;;18.80;99.90;;;;;;5083823;28;19938;-57
2022/08/24 05:12:33;;;;;;;;;;;18.70;99.90;;;;;;5078221;28;19932;-57
2022/08/24 05:15:04;;;;;;;;;;;18.70;99.90;;;;;;5086329;28;19924;-57
2022/08/24 05:17:39;;;;;;;;;;;18.70;99.90;;;;;;5069075;28;19947;-57
2022/08/24 05:20:10;;;;;;;;;;;18.70;99.90;;;;;;5063140;28;19935;-57
2022/08/24 05:22:37;;;;;;;;;;;18.70;99.90;;;;;;5073536;28;20299;-56
2022/08/24 05:25:05;;;;;;;;;;;18.70;99.90;;;;;;5080793;28;19932;-56
2022/08/24 05:27:34;;;;;;;;;;;18.60;99.90;;;;;;5079907;28;19939;-57
2022/08/24 05:30:02;;;;;;;;;;;18.60;99.90;;;;;;5070383;28;19928;-56
2022/08/24 05:32:30;;;;;;;;;;;18.60;99.90;;;;;;5057535;28;19924;-57
2022/08/24 05:34:58;;;;;;;;;;;18.50;99.90;;;;;;5064347;28;19928;-57
2022/08/24 05:37:28;;;;;;;;;;;18.60;99.90;;;;;;5075791;28;19924;-57
2022/08/24 05:40:14;;;;;;;;;;;18.50;99.90;;;;;;5083564;28;19924;-57
2022/08/24 05:42:44;;;;;;;;;;;18.50;99.90;;;;;;5074443;28;20368;-56
2022/08/24 05:45:11;;;;;;;;;;;18.50;99.90;;;;;;5082776;28;20302;-57
2022/08/24 05:47:39;;;;;;;;;;;18.50;99.90;;;;;;5078583;28;19932;-57
2022/08/24 05:50:21;;;;;;;;;;;18.50;99.90;;;;;;5074373;28;19935;-56
2022/08/24 05:52:49;;;;;;;;;;;18.50;99.90;;;;;;5070377;28;19936;-56
2022/08/24 05:55:16;;;;;;;;;;;18.50;99.90;;;;;;5065609;28;19932;-57
2022/08/24 05:57:45;;;;;;;;;;;18.50;99.90;;;;;;5054861;28;19928;-57
2022/08/24 06:00:18;;;;;;;;;;;18.60;99.90;;;;;;5047675;28;19924;-57
2022/08/24 06:02:51;;;;;;;;;;;18.60;99.90;;;;;;5071079;28;19939;-57
2022/08/24 06:05:20;;;;;;;;;;;18.60;99.90;;;;;;5063294;28;19925;-57
2022/08/24 06:07:48;;;;;;;;;;;18.60;99.90;;;;;;5069063;28;19928;-57
2022/08/24 06:10:17;;;;;;;;;;;18.60;99.90;;;;;;5064169;28;19925;-57
2022/08/24 06:13:04;;;;;;;;;;;18.70;99.90;;;;;;5080611;28;19928;-57
2022/08/24 06:15:32;;;;;;;;;;;18.70;99.90;;;;;;5083155;28;19924;-57
2022/08/24 06:18:00;;;;;;;;;;;18.80;99.90;;;;;;5074781;28;19943;-57
2022/08/24 06:20:28;;;;;;;;;;;18.80;99.90;;;;;;5069644;28;19925;-58
2022/08/24 06:22:56;;;;;;;;;;;18.80;99.90;;;;;;5079875;28;19932;-57
2022/08/24 06:28:18;;;;;;;;;;;18.90;99.90;;;;;;5086170;28;20379;-57
2022/08/24 06:30:47;;;;;;;;;;;18.90;99.90;;;;;;5072457;28;19924;-56
2022/08/24 06:33:17;;;;;;;;;;;18.90;99.90;;;;;;5075857;28;19924;-57
2022/08/24 06:35:47;;;;;;;;;;;18.90;99.90;;;;;;5065466;28;19931;-57
2022/08/24 06:38:15;;;;;;;;;;;18.90;99.90;;;;;;5077815;28;20296;-57
2022/08/24 06:40:46;;;;;;;;;;;18.90;99.90;;;;;;5079311;28;20302;-57
2022/08/24 06:43:14;;;;;;;;;;;18.90;99.90;;;;;;5076033;28;19930;-57
2022/08/24 06:45:49;;;;;;;;;;;18.90;99.90;;;;;;5062323;28;19932;-57
2022/08/24 06:48:20;;;;;;;;;;;19.00;99.90;;;;;;5093452;28;20375;-56
2022/08/24 06:50:49;;;;;;;;;;;18.90;99.90;;;;;;5066423;28;19936;-57
2022/08/24 06:53:17;;;;;;;;;;;18.90;99.90;;;;;;5080145;28;19925;-57
2022/08/24 06:55:50;;;;;;;;;;;18.90;99.90;;;;;;5085667;28;19932;-57
2022/08/24 06:58:18;;;;;;;;;;;18.90;99.90;;;;;;5082379;28;19928;-57
2022/08/24 07:00:46;;;;;;;;;;;18.90;99.90;;;;;;5085061;28;19924;-57
2022/08/24 07:03:14;;;;;;;;;;;19.00;99.90;;;;;;5066651;28;20295;-57
2022/08/24 07:05:52;;;;;;;;;;;19.00;99.90;;;;;;5086062;28;19925;-58
2022/08/24 07:08:38;;;;;;;;;;;19.10;99.90;;;;;;5081298;28;19931;-57
2022/08/24 07:11:08;;;;;;;;;;;19.20;99.90;;;;;;5085840;28;19932;-58
2022/08/24 07:13:35;;;;;;;;;;;19.20;99.90;;;;;;5079170;28;20272;-58
2022/08/24 07:16:03;;;;;;;;;;;19.30;99.90;;;;;;5087637;28;19924;-58
2022/08/24 07:18:33;;;;;;;;;;;19.30;99.90;;;;;;5080881;28;19924;-57
2022/08/24 07:21:02;;;;;;;;;;;19.30;99.90;;;;;;5086880;28;20323;-57
2022/08/24 07:23:49;;;;;;;;;;;19.40;99.90;;;;;;5078354;28;20288;-58
2022/08/24 07:26:18;;;;;;;;;;;19.30;99.90;;;;;;5087585;28;19924;-58
2022/08/24 07:28:50;;;;;;;;;;;19.30;99.90;;;;;;5088427;28;19974;-58
2022/08/24 07:31:19;;;;;;;;;;;19.10;99.90;;;;;;5081486;28;19928;-58
2022/08/24 07:34:06;;;;;;;;;;;19.30;99.90;;;;;;5077190;28;20393;-60
2022/08/24 07:36:34;;;;;;;;;;;19.30;99.90;;;;;;5083477;28;19928;-59
2022/08/24 07:39:03;;;;;;;;;;;19.20;99.90;;;;;;5078165;28;19935;-58
2022/08/24 07:41:36;;;;;;;;;;;19.20;99.90;;;;;;5092698;28;19924;-58
2022/08/24 07:44:23;;;;;;;;;;;19.10;99.90;;;;;;5088881;28;20286;-57
2022/08/24 07:46:51;;;;;;;;;;;19.10;99.90;;;;;;5068256;28;19935;-57
2022/08/24 07:49:19;;;;;;;;;;;19.10;99.90;;;;;;5093327;27;19925;-57
2022/08/24 07:52:04;;;;;;;;;;;19.10;99.90;;;;;;5053425;28;19924;-57
2022/08/24 07:54:32;;;;;;;;;;;19.10;99.90;;;;;;5080824;28;19935;-56
2022/08/24 07:57:05;;;;;;;;;;;19.10;99.90;;;;;;5063161;28;19933;-57
2022/08/24 07:59:33;;;;;;;;;;;19.00;99.90;;;;;;5077052;28;19928;-57
2022/08/24 08:02:01;;;;;;;;;;;19.00;99.90;;;;;;5089174;28;19928;-57
2022/08/24 08:04:30;;;;;;;;;;;19.00;99.90;;;;;;5078939;28;20299;-57
2022/08/24 08:07:00;;;;;;;;;;;18.80;99.90;;;;;;5073289;28;20504;-57
2022/08/24 08:09:30;;;;;;;;;;;19.00;99.90;;;;;;5082584;28;19924;-57
2022/08/24 08:11:59;;;;;;;;;;;19.10;99.90;;;;;;5070770;28;19939;-57
2022/08/24 08:14:26;;;;;;;;;;;19.10;99.90;;;;;;5078221;28;19935;-57
2022/08/24 08:16:54;;;;;;;;;;;19.20;99.90;;;;;;5067635;28;19948;-57
2022/08/24 08:19:22;;;;;;;;;;;19.30;99.90;;;;;;5082562;28;19925;-57
2022/08/24 08:25:01;;;;;;;;;;;19.50;99.90;;;;;;5080725;28;20131;-57
2022/08/24 08:27:29;;;;;;;;;;;19.70;99.90;;;;;;5073558;28;19932;-57
2022/08/24 08:29:56;;;;;;;;;;;19.90;99.90;;;;;;5079682;28;19931;-56
2022/08/24 08:32:24;;;;;;;;;;;19.90;99.90;;;;;;5088564;28;19928;-57
2022/08/24 08:34:51;;;;;;;;;;;20.00;99.90;;;;;;5081419;28;20295;-57
2022/08/24 08:37:19;;;;;;;;;;;20.00;99.90;;;;;;5070389;28;19931;-56
2022/08/24 08:39:46;;;;;;;;;;;20.00;99.90;;;;;;5087726;28;20053;-57
2022/08/24 08:42:26;;;;;;;;;;;20.00;99.90;;;;;;5071633;28;20304;-56
2022/08/24 08:44:54;;;;;;;;;;;19.90;99.90;;;;;;5071202;28;20413;-57
2022/08/24 08:47:43;;;;;;;;;;;19.90;99.90;;;;;;5088312;28;19924;-56
2022/08/24 08:50:13;;;;;;;;;;;19.80;99.90;;;;;;5079657;28;19939;-57
2022/08/24 08:53:03;;;;;;;;;;;19.80;99.90;;;;;;5068589;28;19924;-57
2022/08/24 08:55:40;;;;;;;;;;;19.80;99.90;;;;;;5088269;28;19924;-57
2022/08/24 08:58:15;;;;;;;;;;;19.80;99.90;;;;;;5087223;28;20424;-57
2022/08/24 09:00:48;;;;;;;;;;;19.80;99.90;;;;;;5068523;28;20438;-58
2022/08/24 09:03:20;;;;;;;;;;;19.70;99.90;;;;;;5076764;28;20460;-57
2022/08/24 09:06:25;;;;;;;;;;;19.70;99.90;;;;;;5077156;28;19925;-57
2022/08/24 09:09:02;;;;;;;;;;;19.70;99.90;;;;;;5081987;28;19948;-58
2022/08/24 09:11:51;;;;;;;;;;;19.70;99.90;;;;;;5088092;28;19924;-57
2022/08/24 09:14:38;;;;;;;;;;;19.70;99.90;;;;;;5077314;28;19924;-58
2022/08/24 09:17:24;;;;;;;;;;;19.60;99.90;;;;;;5065232;28;19928;-58
2022/08/24 09:20:10;;;;;;;;;;;19.60;99.90;;;;;;5065886;28;19928;-58
2022/08/24 09:22:40;;;;;;;;;;;19.60;99.90;;;;;;5077214;28;19963;-59
2022/08/24 09:25:27;;;;;;;;;;;19.60;99.90;;;;;;5088803;28;19924;-57
2022/08/24 09:28:03;;;;;;;;;;;19.60;99.90;;;;;;5071735;28;19924;-57
2022/08/24 09:30:56;;;;;;;;;;;19.70;99.90;;;;;;5075971;28;19931;-57
2022/08/24 09:33:29;;;;;;;;;;;19.90;99.90;;;;;;5075571;28;19943;-57
2022/08/24 09:36:06;;;;;;;;;;;20.00;99.90;;;;;;5072444;28;19924;-57
2022/08/24 09:38:53;;;;;;;;;;;20.20;99.90;;;;;;5072674;28;19924;-57
2022/08/24 09:41:20;;;;;;;;;;;20.40;99.90;;;;;;5088680;28;19928;-57
2022/08/24 09:44:06;;;;;;;;;;;20.60;99.90;;;;;;5077358;28;19928;-57
2022/08/24 09:46:52;;;;;;;;;;;20.70;99.90;;;;;;5066404;28;19925;-58
2022/08/24 09:49:29;;;;;;;;;;;20.80;99.90;;;;;;5078957;28;20434;-59
2022/08/24 09:52:15;;;;;;;;;;;20.90;99.90;;;;;;5072861;28;19931;-57
2022/08/24 09:54:42;;;;;;;;;;;20.90;99.90;;;;;;5081160;28;19935;-58
2022/08/24 09:57:13;;;;;;;;;;;20.90;99.90;;;;;;5077854;28;19928;-57
2022/08/24 10:00:02;;;;;;;;;;;21.00;99.90;;;;;;5088649;28;19932;-58
2022/08/24 10:02:47;;;;;;;;;;;21.10;99.90;;;;;;5072470;28;19928;-62
2022/08/24 10:05:26;;;;;;;;;;;21.10;99.90;;;;;;5070222;28;19932;-57
2022/08/24 10:07:56;;;;;;;;;;;21.10;99.90;;;;;;5082106;28;19935;-58
2022/08/24 10:10:28;;;;;;;;;;;21.10;99.90;;;;;;5087908;28;19928;-58
2022/08/24 10:13:15;;;;;;;;;;;21.10;99.90;;;;;;5084252;28;19924;-58
2022/08/24 10:15:42;;;;;;;;;;;21.30;99.90;;;;;;5066918;28;19924;-58
2022/08/24 10:18:10;;;;;;;;;;;21.50;99.90;;;;;;5074813;28;19932;-58
2022/08/24 10:20:40;;;;;;;;;;;21.60;99.90;;;;;;5079710;28;19924;-58
2022/08/24 10:23:25;;;;;;;;;;;21.70;99.90;;;;;;5080021;28;19931;-58
2022/08/24 10:26:05;;;;;;;;;;;21.70;99.90;;;;;;5079965;28;19931;-57
2022/08/24 10:28:33;;;;;;;;;;;21.60;99.90;;;;;;5085509;28;19932;-57
2022/08/24 10:31:30;;;;;;;;;;;21.60;99.90;;;;;;5087748;28;19931;-57
2022/08/24 10:34:12;;;;;;;;;;;21.60;99.90;;;;;;5082877;28;19924;-59
2022/08/24 10:36:43;;;;;;;;;;;21.50;99.90;;;;;;5078470;28;19924;-58
2022/08/24 10:45:14;;;;;;;;;;;21.10;99.90;;;;;;5080308;28;19943;-58
2022/08/24 10:47:52;;;;;;;;;;;21.20;99.90;;;;;;5076110;28;19951;-58
2022/08/24 10:50:28;;;;;;;;;;;21.30;99.90;;;;;;5090669;28;19924;-58
2022/08/24 10:53:04;;;;;;;;;;;21.40;99.90;;;;;;5076828;28;19928;-58
2022/08/24 10:55:33;;;;;;;;;;;21.50;99.90;;;;;;5092013;28;19924;-58
2022/08/24 10:58:19;;;;;;;;;;;21.60;99.90;;;;;;5082619;28;19935;-58
2022/08/24 11:00:47;;;;;;;;;;;21.70;99.90;;;;;;5091703;28;19924;-58
2022/08/24 11:03:18;;;;;;;;;;;21.90;99.90;;;;;;5091398;28;19939;-58
2022/08/24 11:05:48;;;;;;;;;;;22.00;99.90;;;;;;5087470;28;20367;-58
2022/08/24 11:08:23;;;;;;;;;;;22.00;99.90;;;;;;5079988;28;19951;-58
2022/08/24 11:11:05;;;;;;;;;;;22.00;99.90;;;;;;5091427;28;19931;-58
2022/08/24 11:13:35;;;;;;;;;;;22.10;99.90;;;;;;5077238;28;19931;-58
2022/08/24 11:16:04;;;;;;;;;;;22.00;99.90;;;;;;5091132;28;20284;-58
2022/08/24 11:18:58;;;;;;;;;;;22.00;99.90;;;;;;5089960;28;19931;-58
2022/08/24 11:21:33;;;;;;;;;;;22.00;99.90;;;;;;5081608;28;19925;-58
2022/08/24 11:24:08;;;;;;;;;;;22.10;99.90;;;;;;5076087;28;19928;-58
2022/08/24 11:26:46;;;;;;;;;;;22.20;99.90;;;;;;5070623;28;20269;-57
2022/08/24 11:29:20;;;;;;;;;;;22.30;99.90;;;;;;5071862;28;19929;-57
2022/08/24 11:31:49;;;;;;;;;;;22.40;99.90;;;;;;5070967;28;19934;-58
2022/08/24 11:34:18;;;;;;;;;;;22.50;99.90;;;;;;5083708;28;19931;-57
2022/08/24 11:36:46;;;;;;;;;;;22.60;99.90;;;;;;5079977;28;19924;-58
2022/08/24 11:39:14;;;;;;;;;;;22.70;99.90;;;;;;5071079;28;19924;-58
2022/08/24 11:41:49;;;;;;;;;;;23.00;99.90;;;;;;5083435;28;20288;-58
2022/08/24 11:44:41;;;;;;;;;;;23.30;99.90;;;;;;5083142;28;19924;-58
2022/08/24 11:47:27;;;;;;;;;;;23.50;99.90;;;;;;5087555;28;19924;-58
2022/08/24 11:50:07;;;;;;;;;;;23.70;99.90;;;;;;5073047;28;20288;-58
2022/08/24 11:52:46;;;;;;;;;;;23.90;99.90;;;;;;5074622;28;19925;-59
2022/08/24 11:55:18;;;;;;;;;;;24.10;99.90;;;;;;5070434;28;19925;-59
2022/08/24 11:58:04;;;;;;;;;;;24.30;99.90;;;;;;5075683;28;19924;-58
2022/08/24 12:00:51;;;;;;;;;;;24.30;99.90;;;;;;5083739;28;19939;-58
2022/08/24 12:03:26;;;;;;;;;;;24.50;99.70;;;;;;5074567;28;20294;-58
2022/08/24 12:05:57;;;;;;;;;;;24.60;99.70;;;;;;5089479;28;19931;-59
2022/08/24 12:08:29;;;;;;;;;;;24.70;99.30;;;;;;5088915;28;19930;-58
2022/08/24 12:11:17;;;;;;;;;;;24.70;98.90;;;;;;5088051;28;19931;-59
2022/08/24 12:13:48;;;;;;;;;;;24.50;99.00;;;;;;5078398;28;19924;-58
2022/08/24 12:16:15;;;;;;;;;;;24.50;99.70;;;;;;5086871;28;19928;-58
2022/08/24 12:19:09;;;;;;;;;;;24.40;99.80;;;;;;5088894;28;19928;-58
2022/08/24 12:21:38;;;;;;;;;;;24.50;99.90;;;;;;5068684;28;19932;-58
2022/08/24 12:24:12;;;;;;;;;;;25.10;99.90;;;;;;5080714;28;20288;-59
2022/08/24 12:26:42;;;;;;;;;;;25.70;99.80;;;;;;5089876;28;19928;-58
2022/08/24 12:29:14;;;;;;;;;;;26.40;99.00;;;;;;5088852;28;19927;-59
2022/08/24 12:31:43;;;;;;;;;;;27.00;97.80;;;;;;5086797;28;19924;-59
2022/08/24 12:34:20;;;;;;;;;;;27.50;96.80;;;;;;5086438;28;19924;-59
2022/08/24 12:37:14;;;;;;;;;;;28.00;95.70;;;;;;5081304;28;19925;-59
2022/08/24 12:39:56;;;;;;;;;;;28.40;94.20;;;;;;5067884;28;19932;-59
2022/08/24 12:42:28;;;;;;;;;;;28.50;93.30;;;;;;5068974;28;19924;-60
2022/08/24 12:45:00;;;;;;;;;;;28.20;93.30;;;;;;5087556;28;20150;-60
2022/08/24 12:47:34;;;;;;;;;;;27.60;92.80;;;;;;5074239;28;20283;-59
2022/08/24 12:50:06;;;;;;;;;;;27.10;93.40;;;;;;5089865;28;19936;-59
2022/08/24 12:52:42;;;;;;;;;;;26.60;93.90;;;;;;5077871;28;19924;-58
2022/08/24 12:55:19;;;;;;;;;;;26.20;94.60;;;;;;5088502;28;19928;-59
2022/08/24 12:58:08;;;;;;;;;;;25.90;95.10;;;;;;5089458;28;19935;-58
2022/08/24 13:00:55;;;;;;;;;;;25.70;95.70;;;;;;5087663;28;20276;-58
2022/08/24 13:03:37;;;;;;;;;;;25.60;95.70;;;;;;5074160;28;19924;-58
2022/08/24 13:06:16;;;;;;;;;;;25.70;96.50;;;;;;5089562;28;19924;-58
2022/08/24 13:08:45;;;;;;;;;;;26.20;97.50;;;;;;5088622;28;19931;-58
2022/08/24 13:11:24;;;;;;;;;;;26.80;95.70;;;;;;5084957;28;19931;-58
2022/08/24 13:14:04;;;;;;;;;;;27.00;94.10;;;;;;5081382;28;19931;-58
2022/08/24 13:17:10;;;;;;;;;;;27.10;94.20;;;;;;5089156;28;19927;-57
2022/08/24 13:19:40;;;;;;;;;;;27.20;94.30;;;;;;5066025;28;19928;-58
2022/08/24 13:22:08;;;;;;;;;;;27.50;94.20;;;;;;5064129;28;19935;-58
2022/08/24 13:24:37;;;;;;;;;;;27.70;93.30;;;;;;5067141;28;19928;-58
2022/08/24 13:27:11;;;;;;;;;;;27.50;92.80;;;;;;5087610;28;20371;-58
2022/08/24 13:29:40;;;;;;;;;;;27.20;92.90;;;;;;5072579;28;20410;-58
2022/08/24 13:32:11;;;;;;;;;;;26.90;92.80;;;;;;5078993;28;19928;-58
2022/08/24 13:34:39;;;;;;;;;;;26.50;93.40;;;;;;5087792;28;19924;-58
2022/08/24 13:37:09;;;;;;;;;;;26.50;94.50;;;;;;5082904;28;19947;-58
2022/08/24 13:39:39;;;;;;;;;;;26.50;94.00;;;;;;5088312;28;20117;-58
2022/08/24 13:42:13;;;;;;;;;;;26.50;94.30;;;;;;5077014;28;19929;-58
2022/08/24 13:44:59;;;;;;;;;;;26.70;94.10;;;;;;5083715;28;19928;-58
2022/08/24 13:47:30;;;;;;;;;;;26.70;93.70;;;;;;5086791;28;19928;-58
2022/08/24 13:50:13;;;;;;;;;;;26.60;93.50;;;;;;5086010;28;19936;-57
2022/08/24 13:52:43;;;;;;;;;;;26.70;94.00;;;;;;5080718;28;19924;-58
2022/08/24 13:55:26;;;;;;;;;;;26.80;93.50;;;;;;5087651;28;19924;-57
2022/08/24 13:58:13;;;;;;;;;;;27.10;94.20;;;;;;5087562;28;19931;-59
2022/08/24 14:00:44;;;;;;;;;;;27.60;94.40;;;;;;5086575;28;19931;-59
2022/08/24 14:03:23;;;;;;;;;;;28.10;92.90;;;;;;5088439;28;19939;-58
2022/08/24 14:05:55;;;;;;;;;;;28.20;92.30;;;;;;5090936;28;19924;-60
2022/08/24 14:08:29;;;;;;;;;;;28.30;92.30;;;;;;5087073;28;19940;-59
2022/08/24 14:10:56;;;;;;;;;;;28.30;92.20;;;;;;5070365;28;20295;-58
2022/08/24 14:13:27;;;;;;;;;;;28.40;91.70;;;;;;5076304;28;19931;-58
2022/08/24 14:19:10;;;;;;;;;;;28.10;91.60;;;;;;5064285;28;19932;-59
2022/08/24 14:22:01;;;;;;;;;;;27.80;91.60;;;;;;5076730;28;19941;-59
2022/08/24 14:24:41;;;;;;;;;;;27.50;91.80;;;;;;5096795;28;20292;-60
2022/08/24 14:27:31;;;;;;;;;;;27.00;91.30;;;;;;5087528;28;19931;-58
2022/08/24 14:30:27;;;;;;;;;;;26.60;92.20;;;;;;5075856;28;19924;-59
2022/08/24 14:32:58;;;;;;;;;;;26.40;92.70;;;;;;5073645;28;19931;-59
2022/08/24 14:35:35;;;;;;;;;;;26.20;93.10;;;;;;5087430;28;19924;-59
2022/08/24 14:38:07;;;;;;;;;;;26.20;93.20;;;;;;5077827;28;19928;-58
2022/08/24 14:40:57;;;;;;;;;;;26.10;93.20;;;;;;5074442;28;19931;-59
2022/08/24 14:43:25;;;;;;;;;;;26.00;93.30;;;;;;5090471;28;19924;-59
2022/08/24 14:46:04;;;;;;;;;;;25.90;93.70;;;;;;5090609;28;20295;-58
2022/08/24 14:48:51;;;;;;;;;;;25.90;93.80;;;;;;5080432;28;19924;-57
2022/08/24 14:51:30;;;;;;;;;;;26.00;94.40;;;;;;5075475;28;19932;-57
2022/08/24 14:54:16;;;;;;;;;;;26.00;93.80;;;;;;5081331;28;19928;-57
2022/08/24 14:56:49;;;;;;;;;;;25.90;93.90;;;;;;5077263;28;19932;-58
2022/08/24 14:59:36;;;;;;;;;;;25.70;93.70;;;;;;5088181;28;19931;-57
2022/08/24 15:02:28;;;;;;;;;;;25.60;93.90;;;;;;5090330;28;19939;-57
2022/08/24 15:05:14;;;;;;;;;;;25.40;94.40;;;;;;5091236;28;19924;-57
2022/08/24 15:07:50;;;;;;;;;;;25.20;94.70;;;;;;5091349;28;19924;-57